sensor_id;sensor_type;location;lat;lon;timestamp;temperature;humidity
52471;DHT22;38382;53.160;7.026;2022-09-09T00:03:54;14.60;99.90
52471;DHT22;38382;53.160;7.026;2022-09-09T00:06:31;14.80;99.90
52471;DHT22;38382;53.160;7.026;2022-09-09T00:09:10;14.60;99.90
52471;DHT22;38382;53.160;7.026;2022-09-09T00:11:47;14.50;99.90
52471;DHT22;38382;53.160;7.026;2022-09-09T00:17:06;14.50;99.90
52471;DHT22;38382;53.160;7.026;2022-09-09T00:19:44;14.50;99.90
52471;DHT22;38382;53.160;7.026;2022-09-09T00:22:20;14.50;99.90
52471;DHT22;38382;53.160;7.026;2022-09-09T00:24:53;14.50;99.90
52471;DHT22;38382;53.160;7.026;2022-09-09T00:27:36;14.40;99.90
52471;DHT22;38382;53.160;7.026;2022-09-09T00:32:49;14.40;99.90
52471;DHT22;38382;53.160;7.026;2022-09-09T00:35:31;14.30;99.90
52471;DHT22;38382;53.160;7.026;2022-09-09T00:38:02;14.30;99.90
52471;DHT22;38382;53.160;7.026;2022-09-09T00:40:58;14.30;99.90
52471;DHT22;38382;53.160;7.026;2022-09-09T00:43:32;14.30;99.90
52471;DHT22;38382;53.160;7.026;2022-09-09T00:52:30;14.20;99.90
52471;DHT22;38382;53.160;7.026;2022-09-09T00:54:50;14.20;99.90
52471;DHT22;38382;53.160;7.026;2022-09-09T00:57:35;14.20;99.90
52471;DHT22;38382;53.160;7.026;2022-09-09T01:00:33;14.10;99.90
52471;DHT22;38382;53.160;7.026;2022-09-09T01:10:54;14.00;99.90
52471;DHT22;38382;53.160;7.026;2022-09-09T01:13:24;14.00;99.90
52471;DHT22;38382;53.160;7.026;2022-09-09T01:15:51;14.10;99.90
52471;DHT22;38382;53.160;7.026;2022-09-09T01:18:23;14.00;99.90
52471;DHT22;38382;53.160;7.026;2022-09-09T01:26:25;14.00;99.90
52471;DHT22;38382;53.160;7.026;2022-09-09T01:28:52;13.90;99.90
52471;DHT22;38382;53.160;7.026;2022-09-09T01:31:26;14.20;99.90
52471;DHT22;38382;53.160;7.026;2022-09-09T01:33:53;13.90;99.90
52471;DHT22;38382;53.160;7.026;2022-09-09T01:36:29;13.90;99.90
52471;DHT22;38382;53.160;7.026;2022-09-09T01:38:57;13.90;99.90
52471;DHT22;38382;53.160;7.026;2022-09-09T01:41:23;13.80;99.90
52471;DHT22;38382;53.160;7.026;2022-09-09T01:43:49;13.80;99.90
52471;DHT22;38382;53.160;7.026;2022-09-09T01:46:16;13.80;99.90
52471;DHT22;38382;53.160;7.026;2022-09-09T01:48:43;13.80;99.90
52471;DHT22;38382;53.160;7.026;2022-09-09T01:51:09;13.80;99.90
52471;DHT22;38382;53.160;7.026;2022-09-09T01:53:36;14.20;99.90
52471;DHT22;38382;53.160;7.026;2022-09-09T01:56:31;13.80;99.90
52471;DHT22;38382;53.160;7.026;2022-09-09T02:02:10;13.80;99.90
52471;DHT22;38382;53.160;7.026;2022-09-09T02:04:43;13.80;99.90
52471;DHT22;38382;53.160;7.026;2022-09-09T02:09:56;13.70;99.90
52471;DHT22;38382;53.160;7.026;2022-09-09T02:12:24;13.80;99.90
52471;DHT22;38382;53.160;7.026;2022-09-09T02:14:56;13.90;99.90
52471;DHT22;38382;53.160;7.026;2022-09-09T02:17:28;13.70;99.90
52471;DHT22;38382;53.160;7.026;2022-09-09T02:20:08;13.80;99.90
52471;DHT22;38382;53.160;7.026;2022-09-09T02:22:37;13.80;99.90
52471;DHT22;38382;53.160;7.026;2022-09-09T02:25:07;13.80;99.90
52471;DHT22;38382;53.160;7.026;2022-09-09T02:27:34;13.80;99.90
52471;DHT22;38382;53.160;7.026;2022-09-09T02:30:02;13.80;99.90
52471;DHT22;38382;53.160;7.026;2022-09-09T02:32:30;13.80;99.90
52471;DHT22;38382;53.160;7.026;2022-09-09T02:35:05;13.80;99.90
52471;DHT22;38382;53.160;7.026;2022-09-09T02:37:36;13.80;99.90
52471;DHT22;38382;53.160;7.026;2022-09-09T02:40:04;13.80;99.90
52471;DHT22;38382;53.160;7.026;2022-09-09T02:42:31;13.80;99.90
52471;DHT22;38382;53.160;7.026;2022-09-09T02:44:57;13.80;99.90
52471;DHT22;38382;53.160;7.026;2022-09-09T02:47:32;13.90;99.90
52471;DHT22;38382;53.160;7.026;2022-09-09T02:50:13;13.80;99.90
52471;DHT22;38382;53.160;7.026;2022-09-09T02:53:16;13.90;99.90
52471;DHT22;38382;53.160;7.026;2022-09-09T02:55:58;13.90;99.90
52471;DHT22;38382;53.160;7.026;2022-09-09T02:58:27;13.80;99.90
52471;DHT22;38382;53.160;7.026;2022-09-09T03:00:53;13.80;99.90
52471;DHT22;38382;53.160;7.026;2022-09-09T03:03:20;13.90;99.90
52471;DHT22;38382;53.160;7.026;2022-09-09T03:05:47;13.80;99.90
52471;DHT22;38382;53.160;7.026;2022-09-09T03:08:13;13.90;99.90
52471;DHT22;38382;53.160;7.026;2022-09-09T03:10:39;13.90;99.90
52471;DHT22;38382;53.160;7.026;2022-09-09T03:13:05;13.90;99.90
52471;DHT22;38382;53.160;7.026;2022-09-09T03:15:34;13.80;99.90
52471;DHT22;38382;53.160;7.026;2022-09-09T03:18:00;13.90;99.90
52471;DHT22;38382;53.160;7.026;2022-09-09T03:20:28;14.00;99.90
52471;DHT22;38382;53.160;7.026;2022-09-09T03:22:55;14.00;99.90
52471;DHT22;38382;53.160;7.026;2022-09-09T03:25:22;14.00;99.90
52471;DHT22;38382;53.160;7.026;2022-09-09T03:27:52;14.00;99.90
52471;DHT22;38382;53.160;7.026;2022-09-09T03:30:24;14.00;99.90
52471;DHT22;38382;53.160;7.026;2022-09-09T03:32:50;14.00;99.90
52471;DHT22;38382;53.160;7.026;2022-09-09T03:35:18;14.00;99.90
52471;DHT22;38382;53.160;7.026;2022-09-09T03:37:44;14.00;99.90
52471;DHT22;38382;53.160;7.026;2022-09-09T03:40:10;14.10;99.90
52471;DHT22;38382;53.160;7.026;2022-09-09T03:42:37;14.10;99.90
52471;DHT22;38382;53.160;7.026;2022-09-09T03:45:04;14.10;99.90
52471;DHT22;38382;53.160;7.026;2022-09-09T03:47:30;14.10;99.90
52471;DHT22;38382;53.160;7.026;2022-09-09T03:49:56;14.10;99.90
52471;DHT22;38382;53.160;7.026;2022-09-09T03:52:22;14.10;99.90
52471;DHT22;38382;53.160;7.026;2022-09-09T03:54:50;14.10;99.90
52471;DHT22;38382;53.160;7.026;2022-09-09T03:57:16;14.20;99.90
52471;DHT22;38382;53.160;7.026;2022-09-09T03:59:43;14.10;99.90
52471;DHT22;38382;53.160;7.026;2022-09-09T04:02:09;14.20;99.90
52471;DHT22;38382;53.160;7.026;2022-09-09T04:04:35;14.10;99.90
52471;DHT22;38382;53.160;7.026;2022-09-09T04:07:01;14.20;99.90
52471;DHT22;38382;53.160;7.026;2022-09-09T04:09:27;14.10;99.90
52471;DHT22;38382;53.160;7.026;2022-09-09T04:11:52;14.40;99.90
52471;DHT22;38382;53.160;7.026;2022-09-09T04:14:20;14.10;99.90
52471;DHT22;38382;53.160;7.026;2022-09-09T04:16:46;14.20;99.90
52471;DHT22;38382;53.160;7.026;2022-09-09T04:19:12;14.20;99.90
52471;DHT22;38382;53.160;7.026;2022-09-09T04:21:42;14.20;99.90
52471;DHT22;38382;53.160;7.026;2022-09-09T04:24:08;14.20;99.90
52471;DHT22;38382;53.160;7.026;2022-09-09T04:26:35;14.20;99.90
52471;DHT22;38382;53.160;7.026;2022-09-09T04:29:03;14.30;99.90
52471;DHT22;38382;53.160;7.026;2022-09-09T04:31:29;14.30;99.90
52471;DHT22;38382;53.160;7.026;2022-09-09T04:33:54;14.30;99.90
52471;DHT22;38382;53.160;7.026;2022-09-09T04:36:20;14.50;99.90
52471;DHT22;38382;53.160;7.026;2022-09-09T04:38:46;14.30;99.90
52471;DHT22;38382;53.160;7.026;2022-09-09T04:41:13;14.30;99.90
52471;DHT22;38382;53.160;7.026;2022-09-09T04:43:39;14.30;99.90
52471;DHT22;38382;53.160;7.026;2022-09-09T04:46:05;14.30;99.90
52471;DHT22;38382;53.160;7.026;2022-09-09T04:48:31;14.30;99.90
52471;DHT22;38382;53.160;7.026;2022-09-09T04:51:03;14.30;99.90
52471;DHT22;38382;53.160;7.026;2022-09-09T04:53:29;14.20;99.90
52471;DHT22;38382;53.160;7.026;2022-09-09T04:56:06;14.30;99.90
52471;DHT22;38382;53.160;7.026;2022-09-09T04:58:32;14.20;99.90
52471;DHT22;38382;53.160;7.026;2022-09-09T05:01:09;14.20;99.90
52471;DHT22;38382;53.160;7.026;2022-09-09T05:03:35;14.20;99.90
52471;DHT22;38382;53.160;7.026;2022-09-09T05:06:05;14.20;99.90
52471;DHT22;38382;53.160;7.026;2022-09-09T05:08:32;14.20;99.90
52471;DHT22;38382;53.160;7.026;2022-09-09T05:10:57;14.20;99.90
52471;DHT22;38382;53.160;7.026;2022-09-09T05:13:26;14.20;99.90
52471;DHT22;38382;53.160;7.026;2022-09-09T05:15:55;14.20;99.90
52471;DHT22;38382;53.160;7.026;2022-09-09T05:18:21;14.20;99.90
52471;DHT22;38382;53.160;7.026;2022-09-09T05:20:48;14.20;99.90
52471;DHT22;38382;53.160;7.026;2022-09-09T05:23:14;14.20;99.90
52471;DHT22;38382;53.160;7.026;2022-09-09T05:25:39;14.30;99.90
52471;DHT22;38382;53.160;7.026;2022-09-09T05:28:09;14.20;99.90
52471;DHT22;38382;53.160;7.026;2022-09-09T05:30:35;14.20;99.90
52471;DHT22;38382;53.160;7.026;2022-09-09T05:33:00;14.20;99.90
52471;DHT22;38382;53.160;7.026;2022-09-09T05:35:26;14.20;99.90
52471;DHT22;38382;53.160;7.026;2022-09-09T05:37:52;14.10;99.90
52471;DHT22;38382;53.160;7.026;2022-09-09T05:40:17;14.10;99.90
52471;DHT22;38382;53.160;7.026;2022-09-09T05:42:44;14.10;99.90
52471;DHT22;38382;53.160;7.026;2022-09-09T05:45:10;14.50;99.90
52471;DHT22;38382;53.160;7.026;2022-09-09T05:47:36;14.20;99.90
52471;DHT22;38382;53.160;7.026;2022-09-09T05:50:03;14.20;99.90
52471;DHT22;38382;53.160;7.026;2022-09-09T05:52:29;14.20;99.90
52471;DHT22;38382;53.160;7.026;2022-09-09T05:54:55;14.20;99.90
52471;DHT22;38382;53.160;7.026;2022-09-09T05:57:22;14.10;99.90
52471;DHT22;38382;53.160;7.026;2022-09-09T05:59:48;14.20;99.90
52471;DHT22;38382;53.160;7.026;2022-09-09T06:02:13;14.10;99.90
52471;DHT22;38382;53.160;7.026;2022-09-09T06:04:39;14.20;99.90
52471;DHT22;38382;53.160;7.026;2022-09-09T06:07:05;14.10;99.90
52471;DHT22;38382;53.160;7.026;2022-09-09T06:09:31;14.20;99.90
52471;DHT22;38382;53.160;7.026;2022-09-09T06:14:32;14.20;99.90
52471;DHT22;38382;53.160;7.026;2022-09-09T06:16:57;14.20;99.90
52471;DHT22;38382;53.160;7.026;2022-09-09T06:19:23;14.20;99.90
52471;DHT22;38382;53.160;7.026;2022-09-09T06:21:51;14.30;99.90
52471;DHT22;38382;53.160;7.026;2022-09-09T06:24:17;14.30;99.90
52471;DHT22;38382;53.160;7.026;2022-09-09T06:26:44;14.30;99.90
52471;DHT22;38382;53.160;7.026;2022-09-09T06:29:11;14.30;99.90
52471;DHT22;38382;53.160;7.026;2022-09-09T06:31:37;14.40;99.90
52471;DHT22;38382;53.160;7.026;2022-09-09T06:34:05;14.40;99.90
52471;DHT22;38382;53.160;7.026;2022-09-09T06:36:33;14.40;99.90
52471;DHT22;38382;53.160;7.026;2022-09-09T06:38:59;14.40;99.90
52471;DHT22;38382;53.160;7.026;2022-09-09T06:41:28;14.40;99.90
52471;DHT22;38382;53.160;7.026;2022-09-09T06:43:54;14.50;99.90
52471;DHT22;38382;53.160;7.026;2022-09-09T06:46:28;14.50;99.90
52471;DHT22;38382;53.160;7.026;2022-09-09T06:48:56;14.60;99.90
52471;DHT22;38382;53.160;7.026;2022-09-09T06:51:31;14.60;99.90
52471;DHT22;38382;53.160;7.026;2022-09-09T06:53:59;14.70;99.90
52471;DHT22;38382;53.160;7.026;2022-09-09T06:56:30;14.80;99.90
52471;DHT22;38382;53.160;7.026;2022-09-09T06:58:59;14.80;99.90
52471;DHT22;38382;53.160;7.026;2022-09-09T07:01:36;14.90;99.90
52471;DHT22;38382;53.160;7.026;2022-09-09T07:04:03;15.00;99.90
52471;DHT22;38382;53.160;7.026;2022-09-09T07:06:31;15.00;99.90
52471;DHT22;38382;53.160;7.026;2022-09-09T07:09:06;15.10;99.90
52471;DHT22;38382;53.160;7.026;2022-09-09T07:11:36;15.10;99.90
52471;DHT22;38382;53.160;7.026;2022-09-09T07:14:02;15.20;99.90
52471;DHT22;38382;53.160;7.026;2022-09-09T07:16:28;15.30;99.90
52471;DHT22;38382;53.160;7.026;2022-09-09T07:18:56;15.40;99.90
52471;DHT22;38382;53.160;7.026;2022-09-09T07:21:24;15.50;99.90
52471;DHT22;38382;53.160;7.026;2022-09-09T07:23:50;15.60;99.90
52471;DHT22;38382;53.160;7.026;2022-09-09T07:26:18;15.70;99.90
52471;DHT22;38382;53.160;7.026;2022-09-09T07:28:49;15.80;99.90
52471;DHT22;38382;53.160;7.026;2022-09-09T07:31:17;15.80;99.90
52471;DHT22;38382;53.160;7.026;2022-09-09T07:33:44;15.90;99.90
52471;DHT22;38382;53.160;7.026;2022-09-09T07:36:18;15.90;99.90
52471;DHT22;38382;53.160;7.026;2022-09-09T07:38:51;16.00;99.90
52471;DHT22;38382;53.160;7.026;2022-09-09T07:43:51;16.10;99.90
52471;DHT22;38382;53.160;7.026;2022-09-09T07:46:20;16.20;99.90
52471;DHT22;38382;53.160;7.026;2022-09-09T07:48:50;16.20;99.90
52471;DHT22;38382;53.160;7.026;2022-09-09T07:51:20;16.30;99.90
52471;DHT22;38382;53.160;7.026;2022-09-09T07:53:47;16.40;99.90
52471;DHT22;38382;53.160;7.026;2022-09-09T07:56:15;16.40;99.90
52471;DHT22;38382;53.160;7.026;2022-09-09T07:58:47;16.60;99.90
52471;DHT22;38382;53.160;7.026;2022-09-09T08:01:23;16.70;99.90
52471;DHT22;38382;53.160;7.026;2022-09-09T08:04:00;16.90;99.90
52471;DHT22;38382;53.160;7.026;2022-09-09T08:06:28;17.10;99.90
52471;DHT22;38382;53.160;7.026;2022-09-09T08:08:55;17.20;99.90
52471;DHT22;38382;53.160;7.026;2022-09-09T08:11:22;17.30;99.90
52471;DHT22;38382;53.160;7.026;2022-09-09T08:13:49;17.50;99.90
52471;DHT22;38382;53.160;7.026;2022-09-09T08:16:18;17.60;99.90
52471;DHT22;38382;53.160;7.026;2022-09-09T08:18:47;17.70;99.90
52471;DHT22;38382;53.160;7.026;2022-09-09T08:21:19;17.70;99.90
52471;DHT22;38382;53.160;7.026;2022-09-09T08:23:45;17.80;99.90
52471;DHT22;38382;53.160;7.026;2022-09-09T08:26:17;17.90;99.90
52471;DHT22;38382;53.160;7.026;2022-09-09T08:28:51;17.90;99.90
52471;DHT22;38382;53.160;7.026;2022-09-09T08:31:23;18.00;99.90
52471;DHT22;38382;53.160;7.026;2022-09-09T08:33:49;18.30;99.90
52471;DHT22;38382;53.160;7.026;2022-09-09T08:36:17;18.30;99.90
52471;DHT22;38382;53.160;7.026;2022-09-09T08:38:43;18.40;99.90
52471;DHT22;38382;53.160;7.026;2022-09-09T08:45:04;18.40;99.90
52471;DHT22;38382;53.160;7.026;2022-09-09T08:47:53;18.40;99.90
52471;DHT22;38382;53.160;7.026;2022-09-09T08:55:49;18.20;99.90
52471;DHT22;38382;53.160;7.026;2022-09-09T08:58:24;18.20;99.90
52471;DHT22;38382;53.160;7.026;2022-09-09T09:10:10;18.10;99.90
52471;DHT22;38382;53.160;7.026;2022-09-09T09:12:43;18.20;99.90
52471;DHT22;38382;53.160;7.026;2022-09-09T09:15:25;18.40;99.90
52471;DHT22;38382;53.160;7.026;2022-09-09T09:17:51;18.40;99.90
52471;DHT22;38382;53.160;7.026;2022-09-09T09:20:23;18.40;99.90
52471;DHT22;38382;53.160;7.026;2022-09-09T09:22:52;18.60;99.90
52471;DHT22;38382;53.160;7.026;2022-09-09T09:25:35;19.00;99.90
52471;DHT22;38382;53.160;7.026;2022-09-09T09:28:23;19.30;99.90
52471;DHT22;38382;53.160;7.026;2022-09-09T09:36:01;19.50;99.90
52471;DHT22;38382;53.160;7.026;2022-09-09T09:38:28;19.50;99.90
52471;DHT22;38382;53.160;7.026;2022-09-09T09:40:56;19.50;99.90
52471;DHT22;38382;53.160;7.026;2022-09-09T09:43:34;19.60;99.90
52471;DHT22;38382;53.160;7.026;2022-09-09T09:46:03;19.60;99.90
52471;DHT22;38382;53.160;7.026;2022-09-09T09:48:29;19.60;99.90
52471;DHT22;38382;53.160;7.026;2022-09-09T09:51:06;19.40;99.90
52471;DHT22;38382;53.160;7.026;2022-09-09T09:53:36;19.60;99.90
52471;DHT22;38382;53.160;7.026;2022-09-09T09:56:06;19.70;99.90
52471;DHT22;38382;53.160;7.026;2022-09-09T10:04:01;20.70;99.90
52471;DHT22;38382;53.160;7.026;2022-09-09T10:06:36;20.80;99.90
52471;DHT22;38382;53.160;7.026;2022-09-09T10:09:28;20.60;99.90
52471;DHT22;38382;53.160;7.026;2022-09-09T10:17:23;20.00;99.90
52471;DHT22;38382;53.160;7.026;2022-09-09T10:23:02;19.80;99.90
52471;DHT22;38382;53.160;7.026;2022-09-09T10:28:56;20.30;99.90
52471;DHT22;38382;53.160;7.026;2022-09-09T10:36:52;20.90;99.90
52471;DHT22;38382;53.160;7.026;2022-09-09T10:39:24;21.30;99.90
52471;DHT22;38382;53.160;7.026;2022-09-09T10:44:33;21.80;99.90
52471;DHT22;38382;53.160;7.026;2022-09-09T10:47:44;21.90;99.90
52471;DHT22;38382;53.160;7.026;2022-09-09T10:53:11;21.50;99.90
52471;DHT22;38382;53.160;7.026;2022-09-09T10:55:41;21.30;99.90
52471;DHT22;38382;53.160;7.026;2022-09-09T10:58:14;21.30;99.90
52471;DHT22;38382;53.160;7.026;2022-09-09T11:00:50;21.60;99.90
52471;DHT22;38382;53.160;7.026;2022-09-09T11:03:28;22.00;99.90
52471;DHT22;38382;53.160;7.026;2022-09-09T11:06:04;22.40;99.90
52471;DHT22;38382;53.160;7.026;2022-09-09T11:08:32;22.50;99.90
52471;DHT22;38382;53.160;7.026;2022-09-09T11:11:04;22.60;99.90
52471;DHT22;38382;53.160;7.026;2022-09-09T11:16:29;22.70;99.90
52471;DHT22;38382;53.160;7.026;2022-09-09T11:19:10;22.70;99.90
52471;DHT22;38382;53.160;7.026;2022-09-09T11:21:44;22.60;99.90
52471;DHT22;38382;53.160;7.026;2022-09-09T11:24:22;22.70;99.90
52471;DHT22;38382;53.160;7.026;2022-09-09T11:30:21;23.00;99.90
52471;DHT22;38382;53.160;7.026;2022-09-09T11:35:50;23.40;99.90
52471;DHT22;38382;53.160;7.026;2022-09-09T11:38:28;23.50;99.90
52471;DHT22;38382;53.160;7.026;2022-09-09T11:41:06;23.60;99.90
52471;DHT22;38382;53.160;7.026;2022-09-09T11:43:43;23.70;99.90
52471;DHT22;38382;53.160;7.026;2022-09-09T11:46:10;24.10;99.90
52471;DHT22;38382;53.160;7.026;2022-09-09T11:48:42;24.30;99.90
52471;DHT22;38382;53.160;7.026;2022-09-09T11:51:12;24.50;99.90
52471;DHT22;38382;53.160;7.026;2022-09-09T11:53:58;24.50;99.90
52471;DHT22;38382;53.160;7.026;2022-09-09T11:56:28;24.40;99.90
52471;DHT22;38382;53.160;7.026;2022-09-09T11:59:06;24.60;99.90
52471;DHT22;38382;53.160;7.026;2022-09-09T12:01:37;24.90;99.90
52471;DHT22;38382;53.160;7.026;2022-09-09T12:06:42;24.90;99.90
52471;DHT22;38382;53.160;7.026;2022-09-09T12:14:36;24.40;99.90
52471;DHT22;38382;53.160;7.026;2022-09-09T12:19:41;24.60;99.90
52471;DHT22;38382;53.160;7.026;2022-09-09T12:28:50;23.60;99.90
52471;DHT22;38382;53.160;7.026;2022-09-09T12:34:10;23.10;99.90
52471;DHT22;38382;53.160;7.026;2022-09-09T12:36:37;23.10;99.90
52471;DHT22;38382;53.160;7.026;2022-09-09T12:39:27;23.10;99.90
52471;DHT22;38382;53.160;7.026;2022-09-09T12:41:56;23.10;99.90
52471;DHT22;38382;53.160;7.026;2022-09-09T12:44:25;23.10;99.90
52471;DHT22;38382;53.160;7.026;2022-09-09T12:46:53;23.00;99.90
52471;DHT22;38382;53.160;7.026;2022-09-09T12:49:31;23.20;99.90
52471;DHT22;38382;53.160;7.026;2022-09-09T12:52:46;23.20;99.90
52471;DHT22;38382;53.160;7.026;2022-09-09T12:54:47;23.20;99.90
52471;DHT22;38382;53.160;7.026;2022-09-09T12:57:14;23.30;99.90
52471;DHT22;38382;53.160;7.026;2022-09-09T12:59:42;23.50;99.90
52471;DHT22;38382;53.160;7.026;2022-09-09T13:02:44;23.50;99.90
52471;DHT22;38382;53.160;7.026;2022-09-09T13:05:25;23.90;99.90
52471;DHT22;38382;53.160;7.026;2022-09-09T13:07:59;24.10;99.90
52471;DHT22;38382;53.160;7.026;2022-09-09T13:10:29;23.90;99.90
52471;DHT22;38382;53.160;7.026;2022-09-09T13:12:57;23.70;99.90
52471;DHT22;38382;53.160;7.026;2022-09-09T13:15:26;23.70;99.90
52471;DHT22;38382;53.160;7.026;2022-09-09T13:17:59;24.20;99.90
52471;DHT22;38382;53.160;7.026;2022-09-09T13:20:27;24.80;99.90
52471;DHT22;38382;53.160;7.026;2022-09-09T13:22:54;25.30;99.90
52471;DHT22;38382;53.160;7.026;2022-09-09T13:25:28;25.60;99.20
52471;DHT22;38382;53.160;7.026;2022-09-09T13:28:05;25.80;97.80
52471;DHT22;38382;53.160;7.026;2022-09-09T13:30:35;26.10;95.30
52471;DHT22;38382;53.160;7.026;2022-09-09T13:33:35;26.20;95.00
52471;DHT22;38382;53.160;7.026;2022-09-09T13:36:07;26.10;94.40
52471;DHT22;38382;53.160;7.026;2022-09-09T13:38:40;25.70;95.10
52471;DHT22;38382;53.160;7.026;2022-09-09T13:41:08;25.40;95.50
52471;DHT22;38382;53.160;7.026;2022-09-09T13:43:43;25.60;95.80
52471;DHT22;38382;53.160;7.026;2022-09-09T13:49:19;25.20;94.40
52471;DHT22;38382;53.160;7.026;2022-09-09T13:51:49;24.80;96.40
52471;DHT22;38382;53.160;7.026;2022-09-09T13:54:18;24.20;96.60
52471;DHT22;38382;53.160;7.026;2022-09-09T13:56:45;23.90;97.60
52471;DHT22;38382;53.160;7.026;2022-09-09T13:59:15;23.60;98.00
52471;DHT22;38382;53.160;7.026;2022-09-09T14:01:42;23.30;98.50
52471;DHT22;38382;53.160;7.026;2022-09-09T14:04:08;22.90;98.60
52471;DHT22;38382;53.160;7.026;2022-09-09T14:06:35;22.50;99.10
52471;DHT22;38382;53.160;7.026;2022-09-09T14:09:10;22.20;99.50
52471;DHT22;38382;53.160;7.026;2022-09-09T14:11:36;22.10;99.90
52471;DHT22;38382;53.160;7.026;2022-09-09T14:14:02;21.80;99.90
52471;DHT22;38382;53.160;7.026;2022-09-09T14:16:28;21.70;99.90
52471;DHT22;38382;53.160;7.026;2022-09-09T14:18:54;21.60;99.90
52471;DHT22;38382;53.160;7.026;2022-09-09T14:21:25;21.40;99.90
52471;DHT22;38382;53.160;7.026;2022-09-09T14:23:51;21.20;99.90
52471;DHT22;38382;53.160;7.026;2022-09-09T14:26:21;21.20;99.90
52471;DHT22;38382;53.160;7.026;2022-09-09T14:28:49;20.90;99.90
52471;DHT22;38382;53.160;7.026;2022-09-09T14:31:15;20.70;99.90
52471;DHT22;38382;53.160;7.026;2022-09-09T14:33:43;20.40;99.90
52471;DHT22;38382;53.160;7.026;2022-09-09T14:36:09;20.20;99.90
52471;DHT22;38382;53.160;7.026;2022-09-09T14:38:37;20.20;99.90
52471;DHT22;38382;53.160;7.026;2022-09-09T14:41:10;20.00;99.90
52471;DHT22;38382;53.160;7.026;2022-09-09T14:43:38;20.10;99.90
52471;DHT22;38382;53.160;7.026;2022-09-09T14:46:12;20.10;99.90
52471;DHT22;38382;53.160;7.026;2022-09-09T14:48:38;20.20;99.90
52471;DHT22;38382;53.160;7.026;2022-09-09T14:51:12;20.10;99.90
52471;DHT22;38382;53.160;7.026;2022-09-09T14:53:39;20.10;99.90
52471;DHT22;38382;53.160;7.026;2022-09-09T14:56:11;20.10;99.90
52471;DHT22;38382;53.160;7.026;2022-09-09T14:58:38;20.00;99.90
52471;DHT22;38382;53.160;7.026;2022-09-09T15:01:09;19.90;99.90
52471;DHT22;38382;53.160;7.026;2022-09-09T15:03:39;20.00;99.90
52471;DHT22;38382;53.160;7.026;2022-09-09T15:06:10;20.00;99.90
52471;DHT22;38382;53.160;7.026;2022-09-09T15:08:38;20.00;99.90
52471;DHT22;38382;53.160;7.026;2022-09-09T15:11:05;20.10;99.90
52471;DHT22;38382;53.160;7.026;2022-09-09T15:13:32;20.10;99.90
52471;DHT22;38382;53.160;7.026;2022-09-09T15:16:23;20.10;99.90
52471;DHT22;38382;53.160;7.026;2022-09-09T15:18:55;20.10;99.90
52471;DHT22;38382;53.160;7.026;2022-09-09T15:21:23;20.10;99.90
52471;DHT22;38382;53.160;7.026;2022-09-09T15:23:49;20.00;99.90
52471;DHT22;38382;53.160;7.026;2022-09-09T15:26:16;19.80;99.90
52471;DHT22;38382;53.160;7.026;2022-09-09T15:28:43;19.70;99.90
52471;DHT22;38382;53.160;7.026;2022-09-09T15:31:15;19.60;99.90
52471;DHT22;38382;53.160;7.026;2022-09-09T15:33:54;19.50;99.90
52471;DHT22;38382;53.160;7.026;2022-09-09T15:36:36;19.50;99.90
52471;DHT22;38382;53.160;7.026;2022-09-09T15:39:04;19.40;99.90
52471;DHT22;38382;53.160;7.026;2022-09-09T15:41:31;19.40;99.90
52471;DHT22;38382;53.160;7.026;2022-09-09T15:56:14;19.60;99.90
52471;DHT22;38382;53.160;7.026;2022-09-09T16:13:59;21.80;99.90
52471;DHT22;38382;53.160;7.026;2022-09-09T16:16:27;22.00;99.90
52471;DHT22;38382;53.160;7.026;2022-09-09T16:18:58;22.00;99.90
52471;DHT22;38382;53.160;7.026;2022-09-09T16:21:30;22.20;99.90
52471;DHT22;38382;53.160;7.026;2022-09-09T16:23:57;22.10;99.90
52471;DHT22;38382;53.160;7.026;2022-09-09T16:26:25;21.90;99.90
52471;DHT22;38382;53.160;7.026;2022-09-09T16:28:50;21.70;99.90
52471;DHT22;38382;53.160;7.026;2022-09-09T16:31:22;21.60;99.90
52471;DHT22;38382;53.160;7.026;2022-09-09T16:33:51;21.40;99.90
52471;DHT22;38382;53.160;7.026;2022-09-09T16:36:19;21.40;99.90
52471;DHT22;38382;53.160;7.026;2022-09-09T16:38:45;21.50;99.90
52471;DHT22;38382;53.160;7.026;2022-09-09T16:41:12;21.40;99.90
52471;DHT22;38382;53.160;7.026;2022-09-09T16:46:15;21.10;99.90
52471;DHT22;38382;53.160;7.026;2022-09-09T17:03:38;20.90;99.90
52471;DHT22;38382;53.160;7.026;2022-09-09T17:10:02;20.40;99.90
52471;DHT22;38382;53.160;7.026;2022-09-09T17:12:32;20.20;99.90
52471;DHT22;38382;53.160;7.026;2022-09-09T17:22:21;19.50;99.90
52471;DHT22;38382;53.160;7.026;2022-09-09T17:52:45;18.30;99.90
52471;DHT22;38382;53.160;7.026;2022-09-09T17:55:10;17.70;99.90
52471;DHT22;38382;53.160;7.026;2022-09-09T17:57:36;18.20;99.90
52471;DHT22;38382;53.160;7.026;2022-09-09T18:00:05;18.20;99.90
52471;DHT22;38382;53.160;7.026;2022-09-09T18:02:31;18.20;99.90
52471;DHT22;38382;53.160;7.026;2022-09-09T18:04:57;18.10;99.90
52471;DHT22;38382;53.160;7.026;2022-09-09T18:07:22;18.10;99.90
52471;DHT22;38382;53.160;7.026;2022-09-09T18:09:50;18.00;99.90
52471;DHT22;38382;53.160;7.026;2022-09-09T18:12:52;18.00;99.90
52471;DHT22;38382;53.160;7.026;2022-09-09T18:15:38;17.90;99.90
52471;DHT22;38382;53.160;7.026;2022-09-09T18:21:45;17.80;99.90
52471;DHT22;38382;53.160;7.026;2022-09-09T18:24:42;17.80;99.90
52471;DHT22;38382;53.160;7.026;2022-09-09T18:27:58;17.70;99.90
52471;DHT22;38382;53.160;7.026;2022-09-09T18:34:08;17.70;99.90
52471;DHT22;38382;53.160;7.026;2022-09-09T18:37:16;17.60;99.90
52471;DHT22;38382;53.160;7.026;2022-09-09T18:40:34;17.60;99.90
52471;DHT22;38382;53.160;7.026;2022-09-09T18:42:59;17.60;99.90
52471;DHT22;38382;53.160;7.026;2022-09-09T18:45:27;17.60;99.90
52471;DHT22;38382;53.160;7.026;2022-09-09T18:47:52;17.60;99.90
52471;DHT22;38382;53.160;7.026;2022-09-09T18:50:18;17.50;99.90
52471;DHT22;38382;53.160;7.026;2022-09-09T18:52:44;17.50;99.90
52471;DHT22;38382;53.160;7.026;2022-09-09T18:55:09;17.50;99.90
52471;DHT22;38382;53.160;7.026;2022-09-09T18:57:35;17.50;99.90
52471;DHT22;38382;53.160;7.026;2022-09-09T19:00:04;17.50;99.90
52471;DHT22;38382;53.160;7.026;2022-09-09T19:02:30;17.40;99.90
52471;DHT22;38382;53.160;7.026;2022-09-09T19:04:55;17.40;99.90
52471;DHT22;38382;53.160;7.026;2022-09-09T19:07:22;17.40;99.90
52471;DHT22;38382;53.160;7.026;2022-09-09T19:09:48;17.40;99.90
52471;DHT22;38382;53.160;7.026;2022-09-09T19:12:13;17.40;99.90
52471;DHT22;38382;53.160;7.026;2022-09-09T19:14:39;17.30;99.90
52471;DHT22;38382;53.160;7.026;2022-09-09T19:17:05;17.40;99.90
52471;DHT22;38382;53.160;7.026;2022-09-09T19:19:32;17.30;99.90
52471;DHT22;38382;53.160;7.026;2022-09-09T19:21:59;17.30;99.90
52471;DHT22;38382;53.160;7.026;2022-09-09T19:24:30;17.40;99.90
52471;DHT22;38382;53.160;7.026;2022-09-09T19:26:59;17.30;99.90